Time;durP1;ratioP1;P1;durP2;ratioP2;P2;SDS_P1;SDS_P2;PMS_P1;PMS_P2;Temp;Humidity;BMP_temperature;BMP_pressure;BME280_temperature;BME280_humidity;BME280_pressure;Samples;Min_cycle;Max_cycle;Signal;HPM_P1;HPM_P2
2023/03/10 00:03:02;;;;;;;4.97;1.10;;;9.50;99.90;;;;;;5034847;28;20041;-82
2023/03/10 00:05:28;;;;;;;9.35;1.15;;;9.50;99.90;;;;;;5018084;28;20460;-83
2023/03/10 00:07:55;;;;;;;8.40;1.60;;;9.50;99.90;;;;;;5033628;28;20049;-82
2023/03/10 00:10:22;;;;;;;5.32;1.20;;;9.50;99.90;;;;;;5018169;28;20038;-82
2023/03/10 00:12:49;;;;;;;2.85;1.10;;;9.50;99.90;;;;;;5017826;28;20116;-84
2023/03/10 00:15:15;;;;;;;5.00;1.20;;;9.50;99.90;;;;;;5034558;28;20033;-83
2023/03/10 00:17:42;;;;;;;2.38;0.90;;;9.50;99.90;;;;;;5035104;28;20460;-83
2023/03/10 00:22:56;;;;;;;4.97;1.42;;;9.50;99.90;;;;;;5049998;28;20053;-83
2023/03/10 00:25:23;;;;;;;5.93;1.17;;;9.50;99.90;;;;;;5017729;28;20504;-83
2023/03/10 00:27:51;;;;;;;3.65;1.20;;;9.50;99.90;;;;;;5017172;28;20054;-82
2023/03/10 00:30:20;;;;;;;4.63;1.23;;;9.50;99.90;;;;;;5017717;28;20243;-86
2023/03/10 00:32:47;;;;;;;6.32;1.13;;;9.50;99.90;;;;;;5034228;28;20427;-84
2023/03/10 00:35:13;;;;;;;4.05;1.02;;;9.50;99.90;;;;;;5050102;28;20120;-82
2023/03/10 00:37:40;;;;;;;5.00;1.10;;;9.50;99.90;;;;;;5033794;28;20132;-83
2023/03/10 00:40:13;;;;;;;4.18;1.40;;;9.50;99.90;;;;;;5033441;28;20403;-82
2023/03/10 00:42:40;;;;;;;5.43;1.23;;;9.50;99.90;;;;;;5069161;28;20754;-83
2023/03/10 00:45:06;;;;;;;4.45;1.10;;;9.50;99.90;;;;;;5037052;28;20098;-83
2023/03/10 00:47:33;;;;;;;6.53;1.17;;;9.40;99.90;;;;;;5053985;28;20497;-82
2023/03/10 00:52:46;;;;;;;3.38;1.00;;;9.40;99.90;;;;;;5054535;28;20087;-83
2023/03/10 00:55:13;;;;;;;5.00;1.15;;;9.40;99.90;;;;;;5053009;28;20063;-84
2023/03/10 00:57:39;;;;;;;3.60;1.08;;;9.40;99.90;;;;;;5054453;28;20044;-84
2023/03/10 01:02:53;;;;;;;2.88;0.98;;;9.40;99.90;;;;;;5053650;28;20095;-84
2023/03/10 01:05:19;;;;;;;2.88;1.02;;;9.40;99.90;;;;;;5037127;28;20045;-85
2023/03/10 01:07:46;;;;;;;4.75;1.08;;;9.40;99.90;;;;;;5036256;28;20636;-83
2023/03/10 01:10:15;;;;;;;4.45;1.45;;;9.40;99.90;;;;;;5053696;28;20041;-84
2023/03/10 01:12:41;;;;;;;3.95;1.27;;;9.40;99.90;;;;;;5053620;28;20090;-83
2023/03/10 01:15:08;;;;;;;3.53;1.10;;;9.40;99.90;;;;;;5053553;28;20048;-83
2023/03/10 01:17:35;;;;;;;4.53;1.30;;;9.40;99.90;;;;;;5037126;28;20094;-85
2023/03/10 01:20:08;;;;;;;2.97;1.17;;;9.40;99.90;;;;;;5033506;28;20045;-84
2023/03/10 01:22:35;;;;;;;2.67;0.82;;;9.40;99.90;;;;;;5032638;28;20045;-83
2023/03/10 01:25:02;;;;;;;4.40;1.10;;;9.40;99.90;;;;;;5017032;28;20472;-83
2023/03/10 01:27:29;;;;;;;5.38;1.30;;;9.40;99.90;;;;;;5034377;28;20423;-82
2023/03/10 01:32:41;;;;;;;6.00;1.10;;;9.30;99.90;;;;;;5033249;28;20057;-83
2023/03/10 01:35:08;;;;;;;3.10;0.90;;;9.20;99.90;;;;;;5016311;28;20041;-84
2023/03/10 01:37:35;;;;;;;5.45;1.02;;;9.20;99.90;;;;;;5033179;28;20115;-83
2023/03/10 01:40:03;;;;;;;3.28;1.00;;;9.20;99.90;;;;;;5049802;28;20117;-83
2023/03/10 01:42:30;;;;;;;3.55;1.02;;;9.20;99.90;;;;;;5032485;28;20095;-83
2023/03/10 01:44:57;;;;;;;2.20;0.90;;;9.10;99.90;;;;;;5033374;28;20068;-83
2023/03/10 01:47:24;;;;;;;4.18;0.80;;;9.10;99.90;;;;;;5034115;28;20046;-83
2023/03/10 01:49:53;;;;;;;3.53;0.80;;;9.10;99.90;;;;;;5016464;28;20069;-83
2023/03/10 01:52:20;;;;;;;3.75;1.08;;;9.10;99.90;;;;;;5019543;28;20069;-83
2023/03/10 01:54:48;;;;;;;3.20;1.00;;;9.10;99.90;;;;;;5019680;28;20052;-83
2023/03/10 01:57:15;;;;;;;7.07;1.20;;;9.10;99.90;;;;;;5020640;28;20132;-83
2023/03/10 01:59:44;;;;;;;2.65;1.05;;;9.10;99.90;;;;;;5020370;28;20460;-83
2023/03/10 02:02:11;;;;;;;5.45;1.00;;;9.20;99.90;;;;;;5035876;28;20049;-83
2023/03/10 02:04:38;;;;;;;5.22;1.05;;;9.20;99.90;;;;;;5020426;28;20076;-82
2023/03/10 02:07:04;;;;;;;2.33;1.02;;;9.20;99.90;;;;;;5053253;28;20459;-84
2023/03/10 02:12:02;;;;;;;8.45;0.85;;;9.10;99.90;;;;;;5036390;28;20049;-83
2023/03/10 02:14:30;;;;;;;3.58;1.20;;;9.20;99.90;;;;;;5019285;28;20046;-82
2023/03/10 02:16:57;;;;;;;2.22;0.90;;;9.20;99.90;;;;;;5020384;28;20055;-83
2023/03/10 02:19:26;;;;;;;6.13;1.10;;;9.20;99.90;;;;;;5052965;28;20049;-83
2023/03/10 02:21:52;;;;;;;3.35;1.02;;;9.20;99.90;;;;;;5035341;28;20049;-83
2023/03/10 02:24:19;;;;;;;4.40;0.98;;;9.20;99.90;;;;;;5036351;28;20060;-83
2023/03/10 02:26:46;;;;;;;7.15;2.20;;;9.30;99.90;;;;;;5037327;28;20033;-83
2023/03/10 02:29:13;;;;;;;5.53;1.75;;;9.20;99.90;;;;;;5035523;28;20361;-83
2023/03/10 02:31:41;;;;;;;7.32;1.60;;;9.20;99.90;;;;;;5036032;28;20041;-83
2023/03/10 02:34:08;;;;;;;6.53;1.40;;;9.30;99.90;;;;;;5036167;28;20042;-83
2023/03/10 02:36:35;;;;;;;3.50;1.20;;;9.20;99.90;;;;;;5035055;28;20053;-82
2023/03/10 02:39:03;;;;;;;6.25;1.60;;;9.20;99.90;;;;;;5036549;28;20063;-83
2023/03/10 02:41:29;;;;;;;3.85;1.17;;;9.20;99.90;;;;;;5035027;28;20449;-83
2023/03/10 02:43:56;;;;;;;5.95;1.20;;;9.20;99.90;;;;;;5035953;28;20038;-83
2023/03/10 02:46:26;;;;;;;4.45;1.30;;;9.30;99.90;;;;;;5036058;28;20125;-83
2023/03/10 02:48:54;;;;;;;3.42;1.20;;;9.20;99.90;;;;;;5035247;28;20045;-82
2023/03/10 02:51:27;;;;;;;4.35;1.15;;;9.20;99.90;;;;;;5035727;28;20048;-83
2023/03/10 02:53:56;;;;;;;3.10;1.10;;;9.20;99.90;;;;;;5019723;28;20484;-83
2023/03/10 02:56:24;;;;;;;7.30;1.20;;;9.20;99.90;;;;;;5034887;28;20427;-83
2023/03/10 03:01:43;;;;;;;6.20;1.10;;;9.20;99.90;;;;;;5034753;28;20060;-84
2023/03/10 03:04:10;;;;;;;2.65;1.00;;;9.20;99.90;;;;;;5036231;28;20079;-83
2023/03/10 03:06:38;;;;;;;2.38;1.00;;;9.20;99.90;;;;;;5035571;28;20038;-83
2023/03/10 03:09:07;;;;;;;4.07;1.05;;;9.20;99.90;;;;;;5034720;28;20045;-83
2023/03/10 03:11:34;;;;;;;2.05;0.95;;;9.20;99.90;;;;;;5035355;28;20136;-84
2023/03/10 03:14:02;;;;;;;6.65;1.20;;;9.30;99.90;;;;;;5019400;28;20064;-83
2023/03/10 03:16:30;;;;;;;2.42;1.15;;;9.20;99.90;;;;;;5034694;28;20037;-84
2023/03/10 03:21:48;;;;;;;5.82;1.10;;;9.20;99.90;;;;;;5055270;28;20133;-83
2023/03/10 03:24:16;;;;;;;2.22;0.90;;;9.20;99.90;;;;;;5055300;28;20041;-83
2023/03/10 03:26:43;;;;;;;3.78;1.10;;;9.20;99.90;;;;;;5039445;28;20049;-83
2023/03/10 03:29:14;;;;;;;4.15;1.20;;;9.20;99.90;;;;;;5054886;28;20037;-83
2023/03/10 03:31:41;;;;;;;3.50;1.13;;;9.30;99.90;;;;;;5055403;28;20056;-84
2023/03/10 03:34:14;;;;;;;4.50;1.08;;;9.20;99.90;;;;;;5038641;28;20036;-82
2023/03/10 03:36:42;;;;;;;4.28;1.20;;;9.30;99.90;;;;;;5054865;28;20119;-83
2023/03/10 03:39:16;;;;;;;6.32;1.23;;;9.20;99.90;;;;;;5055052;28;20072;-83
2023/03/10 03:41:52;;;;;;;2.75;1.13;;;9.20;99.90;;;;;;5054481;28;20041;-83
2023/03/10 03:44:19;;;;;;;6.00;1.40;;;9.20;99.90;;;;;;5055248;28;20087;-82
2023/03/10 03:46:47;;;;;;;3.17;1.30;;;9.20;99.90;;;;;;5055652;28;20107;-83
2023/03/10 03:49:16;;;;;;;3.08;1.20;;;9.20;99.90;;;;;;5053867;28;20068;-84
2023/03/10 03:51:44;;;;;;;4.78;1.42;;;9.20;99.90;;;;;;5054534;28;20048;-82
2023/03/10 03:54:11;;;;;;;3.33;1.27;;;9.30;99.90;;;;;;5054301;28;20059;-83
2023/03/10 03:56:39;;;;;;;5.80;1.50;;;9.30;99.90;;;;;;5054555;28;20044;-83
2023/03/10 04:01:55;;;;;;;7.65;1.67;;;9.30;99.90;;;;;;5053443;28;20140;-83
2023/03/10 04:04:22;;;;;;;6.00;1.48;;;9.30;99.90;;;;;;5054363;28;20127;-85
2023/03/10 04:06:50;;;;;;;5.50;1.65;;;9.30;99.90;;;;;;5054542;28;20372;-83
2023/03/10 04:09:17;;;;;;;7.38;1.67;;;9.30;99.90;;;;;;5053552;28;20037;-84
2023/03/10 04:11:44;;;;;;;6.18;1.67;;;9.30;99.90;;;;;;5054275;28;20045;-83
2023/03/10 04:14:11;;;;;;;6.03;1.77;;;9.30;99.90;;;;;;5053686;28;20448;-84
2023/03/10 04:16:37;;;;;;;7.80;1.80;;;9.30;99.90;;;;;;5053835;28;20102;-83
2023/03/10 04:19:11;;;;;;;5.85;1.70;;;9.30;99.90;;;;;;5054141;28;20037;-84
2023/03/10 04:21:41;;;;;;;9.50;2.22;;;9.30;99.90;;;;;;5053077;28;20099;-84
2023/03/10 04:24:08;;;;;;;9.93;2.47;;;9.30;99.90;;;;;;5037687;28;20059;-83
2023/03/10 04:26:35;;;;;;;6.20;2.03;;;9.30;99.90;;;;;;5054073;28;20393;-84
2023/03/10 04:31:50;;;;;;;10.10;2.20;;;9.30;99.90;;;;;;5053823;28;20485;-82
2023/03/10 04:34:34;;;;;;;7.28;2.00;;;9.30;99.90;;;;;;5053675;28;20541;-84
2023/03/10 04:37:02;;;;;;;13.93;3.20;;;9.30;99.90;;;;;;5053743;28;20140;-83
2023/03/10 04:39:30;;;;;;;11.57;2.83;;;9.30;99.90;;;;;;5037220;28;20041;-83
2023/03/10 04:41:56;;;;;;;7.78;2.53;;;9.30;99.90;;;;;;5052800;28;20051;-83
2023/03/10 04:44:23;;;;;;;11.20;2.50;;;9.30;99.90;;;;;;5037186;28;20137;-82
2023/03/10 04:46:58;;;;;;;9.52;2.50;;;9.30;99.90;;;;;;5053708;28;20072;-84
2023/03/10 04:49:28;;;;;;;10.13;3.10;;;9.30;99.90;;;;;;5053401;28;20045;-84
2023/03/10 04:51:55;;;;;;;10.02;2.90;;;9.30;99.90;;;;;;5037178;28;20072;-82
2023/03/10 04:54:22;;;;;;;8.50;2.83;;;9.30;99.90;;;;;;5052754;28;20072;-83
2023/03/10 04:56:49;;;;;;;13.20;2.80;;;9.30;99.90;;;;;;5053715;28;20053;-84
2023/03/10 05:02:04;;;;;;;11.63;2.70;;;9.30;99.90;;;;;;5053431;28;20116;-83
2023/03/10 05:04:31;;;;;;;9.00;2.85;;;9.20;99.90;;;;;;5053733;28;20045;-84
2023/03/10 05:06:57;;;;;;;9.98;3.70;;;9.30;99.90;;;;;;5054469;28;20062;-82
2023/03/10 05:12:22;;;;;;;14.43;6.07;;;9.20;99.90;;;;;;5053353;28;20041;-84
2023/03/10 05:14:49;;;;;;;14.23;6.50;;;8.90;99.90;;;;;;5052695;28;20041;-82
2023/03/10 05:17:16;;;;;;;15.05;6.47;;;8.70;99.90;;;;;;5053830;28;20494;-83
2023/03/10 05:22:14;;;;;;;14.93;6.25;;;8.40;99.90;;;;;;5032431;28;20446;-83
2023/03/10 05:24:41;;;;;;;12.70;5.68;;;8.30;99.90;;;;;;5017261;28;20376;-83
2023/03/10 05:27:09;;;;;;;15.27;6.20;;;8.20;99.90;;;;;;5020017;28;20045;-83
2023/03/10 05:29:41;;;;;;;13.15;5.88;;;8.10;99.90;;;;;;5020769;28;20045;-83
2023/03/10 05:32:15;;;;;;;13.57;5.70;;;8.00;99.90;;;;;;5037313;28;20100;-82
2023/03/10 05:34:44;;;;;;;13.95;5.60;;;7.90;99.90;;;;;;5020340;28;20045;-83
2023/03/10 05:37:11;;;;;;;12.90;5.38;;;7.90;99.90;;;;;;5038232;28;20049;-82
2023/03/10 05:39:40;;;;;;;13.05;5.30;;;7.80;99.90;;;;;;5020846;28;20042;-84
2023/03/10 05:42:14;;;;;;;13.30;5.13;;;7.70;99.90;;;;;;5036164;28;20041;-84
2023/03/10 05:44:41;;;;;;;11.50;4.93;;;7.70;99.90;;;;;;5020860;28;20096;-81
2023/03/10 05:47:08;;;;;;;22.42;5.18;;;7.60;99.90;;;;;;5037180;28;20038;-81
2023/03/10 05:49:36;;;;;;;10.57;4.60;;;7.60;99.90;;;;;;5036208;28;20042;-82
2023/03/10 05:52:05;;;;;;;9.75;4.57;;;7.50;99.90;;;;;;5037411;28;20045;-81
2023/03/10 05:54:32;;;;;;;9.93;4.28;;;7.40;99.90;;;;;;5019563;28;20111;-82
2023/03/10 05:56:59;;;;;;;9.95;4.38;;;7.30;99.90;;;;;;5020564;28;20073;-82
2023/03/10 06:01:59;;;;;;;9.10;4.13;;;7.20;99.90;;;;;;5035792;28;20038;-82
2023/03/10 06:04:32;;;;;;;9.55;4.07;;;7.20;99.90;;;;;;5020429;28;20048;-83
2023/03/10 06:06:59;;;;;;;11.68;4.07;;;7.10;99.90;;;;;;5036857;28;20038;-83
2023/03/10 06:11:56;;;;;;;10.02;3.80;;;7.10;99.90;;;;;;5053356;28;20060;-84
2023/03/10 06:14:22;;;;;;;7.35;2.80;;;7.10;99.90;;;;;;5036118;28;20522;-84
2023/03/10 06:16:52;;;;;;;10.27;3.45;;;7.00;99.90;;;;;;5020474;28;20123;-82
2023/03/10 06:19:21;;;;;;;11.13;3.53;;;6.80;99.90;;;;;;5036681;28;20480;-83
2023/03/10 06:21:48;;;;;;;7.32;3.13;;;6.80;99.90;;;;;;5036475;28;20038;-81
2023/03/10 06:24:15;;;;;;;8.38;3.40;;;6.70;99.90;;;;;;5053300;28;20041;-83
2023/03/10 06:26:41;;;;;;;6.90;2.70;;;6.70;99.90;;;;;;5037430;28;20119;-84
2023/03/10 06:29:09;;;;;;;9.20;3.85;;;6.60;99.90;;;;;;5035916;28;20056;-84
2023/03/10 06:31:36;;;;;;;11.30;3.83;;;6.60;99.90;;;;;;5020009;28;20041;-85
2023/03/10 06:34:03;;;;;;;10.02;3.35;;;6.60;99.90;;;;;;5037275;28;20069;-83
2023/03/10 06:36:31;;;;;;;8.23;2.85;;;6.60;99.90;;;;;;5018826;28;20142;-84
2023/03/10 06:38:59;;;;;;;7.07;2.80;;;6.50;99.90;;;;;;5018823;28;20072;-84
2023/03/10 06:41:26;;;;;;;8.00;3.00;;;6.40;99.90;;;;;;5051804;28;20467;-82
2023/03/10 06:43:53;;;;;;;7.57;2.80;;;6.40;99.90;;;;;;5037387;28;20034;-83
2023/03/10 06:46:20;;;;;;;9.38;3.00;;;6.30;99.90;;;;;;5036289;28;20399;-85
2023/03/10 06:48:49;;;;;;;6.70;2.80;;;6.20;99.90;;;;;;5035406;28;20037;-83
2023/03/10 06:51:16;;;;;;;6.85;2.97;;;6.10;99.90;;;;;;5036716;28;20052;-84
2023/03/10 06:53:42;;;;;;;7.18;2.88;;;6.10;99.90;;;;;;5035938;28;20052;-83
2023/03/10 06:56:09;;;;;;;7.63;2.97;;;6.10;99.90;;;;;;5035237;28;20037;-84
2023/03/10 06:58:37;;;;;;;6.07;2.50;;;6.10;99.90;;;;;;5019521;28;20048;-83
2023/03/10 07:01:04;;;;;;;6.50;2.47;;;6.00;99.90;;;;;;5018428;28;20049;-81
2023/03/10 07:03:30;;;;;;;7.55;2.60;;;6.00;99.90;;;;;;5036219;28;20141;-82
2023/03/10 07:05:58;;;;;;;6.60;2.30;;;6.00;99.90;;;;;;5036090;28;20042;-84
2023/03/10 07:11:28;;;;;;;5.20;2.05;;;6.00;99.90;;;;;;5035493;28;20117;-83
2023/03/10 07:13:54;;;;;;;5.57;2.10;;;6.00;99.90;;;;;;5035635;28;20486;-83
2023/03/10 07:16:21;;;;;;;4.32;1.77;;;5.90;99.90;;;;;;5035088;28;20049;-81
2023/03/10 07:18:49;;;;;;;4.32;1.98;;;5.80;99.90;;;;;;5019341;28;20144;-84
2023/03/10 07:21:16;;;;;;;4.60;2.03;;;5.70;99.90;;;;;;5018348;28;20076;-83
2023/03/10 07:23:42;;;;;;;5.13;1.80;;;5.70;99.90;;;;;;5019045;28;20037;-83
2023/03/10 07:26:09;;;;;;;4.65;1.63;;;5.70;99.90;;;;;;5018886;28;20041;-84
2023/03/10 07:28:37;;;;;;;3.88;1.58;;;5.70;99.90;;;;;;5035104;28;20357;-82
2023/03/10 07:31:04;;;;;;;4.70;1.60;;;5.70;99.90;;;;;;5035170;28;20480;-83
2023/03/10 07:33:30;;;;;;;3.55;1.30;;;5.70;99.90;;;;;;5018964;28;20042;-83
2023/03/10 07:35:57;;;;;;;3.88;1.42;;;5.70;99.90;;;;;;5035552;28;20053;-82
2023/03/10 07:41:12;;;;;;;4.28;1.75;;;5.60;99.90;;;;;;5034576;28;20496;-84
2023/03/10 07:43:38;;;;;;;4.18;1.58;;;5.70;99.90;;;;;;5035726;28;20037;-85
2023/03/10 07:46:05;;;;;;;4.03;1.50;;;5.70;99.90;;;;;;5035190;28;20053;-85
2023/03/10 07:51:18;;;;;;;5.70;1.70;;;5.60;99.90;;;;;;5054847;28;20125;-82
2023/03/10 07:53:45;;;;;;;4.32;1.60;;;5.60;99.90;;;;;;5045610;28;20041;-84
2023/03/10 07:56:11;;;;;;;4.50;1.60;;;5.50;99.90;;;;;;5054631;28;20041;-82
2023/03/10 07:58:40;;;;;;;4.93;1.85;;;5.50;99.90;;;;;;5055352;28;20375;-84
2023/03/10 08:01:07;;;;;;;4.97;1.70;;;5.50;99.90;;;;;;5054916;28;20052;-82
2023/03/10 08:03:34;;;;;;;4.03;1.55;;;5.50;99.90;;;;;;5037659;28;20048;-83
2023/03/10 08:06:04;;;;;;;4.85;1.80;;;5.50;99.90;;;;;;5046308;28;20032;-84
2023/03/10 08:11:16;;;;;;;2.35;1.05;;;5.40;99.90;;;;;;5053053;28;20071;-83
2023/03/10 08:13:46;;;;;;;5.88;1.42;;;5.20;99.90;;;;;;5057451;28;20466;-83
2023/03/10 08:16:13;;;;;;;2.83;1.20;;;5.20;99.90;;;;;;5063610;28;20045;-83
2023/03/10 08:21:28;;;;;;;3.67;1.33;;;5.10;99.90;;;;;;5054426;28;20041;-81
2023/03/10 08:23:54;;;;;;;4.25;1.17;;;5.00;99.90;;;;;;5053593;28;20136;-83
2023/03/10 08:26:21;;;;;;;3.35;1.55;;;5.00;99.90;;;;;;5051773;28;20037;-81
2023/03/10 08:28:50;;;;;;;2.90;1.20;;;4.90;99.90;;;;;;5032357;28;20043;-83
2023/03/10 08:31:17;;;;;;;2.33;1.20;;;4.80;99.90;;;;;;5065744;28;20048;-81
2023/03/10 08:33:43;;;;;;;5.15;1.40;;;4.70;99.90;;;;;;5053650;28;20086;-81
2023/03/10 08:36:10;;;;;;;3.60;1.42;;;4.60;99.90;;;;;;5051760;28;20037;-83
2023/03/10 08:38:37;;;;;;;3.33;1.20;;;4.50;99.90;;;;;;5058481;28;20075;-81
2023/03/10 08:41:04;;;;;;;2.85;1.20;;;4.50;99.90;;;;;;5072798;28;20137;-88
2023/03/10 08:43:30;;;;;;;3.28;1.30;;;4.40;99.90;;;;;;5047532;28;20456;-80
2023/03/10 08:45:57;;;;;;;2.50;1.20;;;4.30;99.90;;;;;;5045003;28;20041;-84
2023/03/10 08:48:25;;;;;;;2.58;1.30;;;4.20;99.90;;;;;;5052748;28;20049;-84
2023/03/10 08:50:51;;;;;;;3.03;1.23;;;4.10;99.90;;;;;;5053775;28;20045;-83
2023/03/10 08:53:18;;;;;;;4.03;1.60;;;4.00;99.90;;;;;;5051101;28;20092;-82
2023/03/10 08:55:45;;;;;;;5.55;1.33;;;4.00;99.90;;;;;;5046047;28;20076;-83
2023/03/10 08:58:11;;;;;;;4.72;1.60;;;3.80;99.90;;;;;;5036722;28;20049;-84
2023/03/10 09:00:38;;;;;;;4.40;1.40;;;3.70;99.90;;;;;;5033090;28;20045;-82
2023/03/10 09:03:05;;;;;;;4.97;1.90;;;3.70;99.90;;;;;;5033014;28;20467;-83
2023/03/10 09:05:31;;;;;;;5.93;1.88;;;3.80;99.90;;;;;;5017540;28;20076;-81
2023/03/10 09:07:58;;;;;;;2.80;1.30;;;3.70;99.90;;;;;;5033424;28;20034;-81
2023/03/10 09:10:26;;;;;;;5.20;1.70;;;3.60;99.90;;;;;;5033743;28;20123;-82
2023/03/10 09:12:52;;;;;;;2.85;1.23;;;3.60;99.90;;;;;;5048450;28;20422;-85
2023/03/10 09:15:40;;;;;;;4.18;1.40;;;3.50;99.90;;;;;;5036497;28;20522;-79
2023/03/10 09:18:07;;;;;;;3.75;1.30;;;3.50;99.90;;;;;;5034437;28;20041;-83
2023/03/10 09:20:33;;;;;;;3.25;1.30;;;3.40;99.90;;;;;;5053200;28;20049;-84
2023/03/10 09:23:00;;;;;;;4.57;1.50;;;3.30;99.90;;;;;;5052416;28;20047;-81
2023/03/10 09:25:27;;;;;;;2.00;1.00;;;3.30;99.90;;;;;;5041081;28;20041;-80
2023/03/10 09:27:53;;;;;;;3.85;1.27;;;3.20;99.90;;;;;;5016407;28;20045;-79
2023/03/10 09:33:07;;;;;;;4.13;1.20;;;3.20;99.90;;;;;;5034472;28;20060;-80
2023/03/10 09:35:34;;;;;;;3.03;1.20;;;3.20;99.90;;;;;;5037786;28;20045;-80
2023/03/10 09:38:07;;;;;;;5.85;1.15;;;3.20;99.90;;;;;;5048043;28;20125;-78
2023/03/10 09:40:34;;;;;;;1.65;1.00;;;3.10;99.90;;;;;;5069052;28;20029;-79
2023/03/10 09:43:00;;;;;;;2.60;1.15;;;3.10;99.90;;;;;;5054910;28;20345;-80
2023/03/10 09:45:27;;;;;;;2.00;1.08;;;3.10;99.90;;;;;;5037942;28;20051;-79
2023/03/10 09:47:54;;;;;;;3.08;0.90;;;3.10;99.90;;;;;;5047109;28;20084;-80
2023/03/10 09:50:20;;;;;;;2.55;0.98;;;3.10;99.90;;;;;;5047571;28;20037;-78
2023/03/10 09:52:47;;;;;;;2.50;1.10;;;3.10;99.90;;;;;;5051221;28;20064;-79
2023/03/10 09:55:13;;;;;;;2.72;1.00;;;3.10;99.90;;;;;;5058830;28;20364;-78
2023/03/10 09:57:40;;;;;;;1.83;0.90;;;3.10;99.90;;;;;;5047135;28;20112;-80
2023/03/10 10:00:09;;;;;;;3.85;1.30;;;3.10;99.90;;;;;;5063261;28;20041;-79
2023/03/10 10:02:36;;;;;;;1.90;0.90;;;3.00;99.90;;;;;;5048260;28;20048;-80
2023/03/10 10:05:03;;;;;;;1.80;0.95;;;3.10;99.90;;;;;;5060287;28;20363;-79
2023/03/10 10:07:29;;;;;;;2.05;0.90;;;3.10;99.90;;;;;;5050399;28;20450;-82
2023/03/10 10:09:56;;;;;;;1.08;0.80;;;3.00;99.90;;;;;;5051472;28;20095;-84
2023/03/10 10:12:23;;;;;;;2.00;1.20;;;3.10;99.90;;;;;;5059376;28;20044;-83
2023/03/10 10:14:50;;;;;;;1.98;0.93;;;3.10;99.90;;;;;;5058503;28;20052;-82
2023/03/10 10:17:23;;;;;;;1.30;0.90;;;3.10;99.90;;;;;;5047065;28;20111;-83
2023/03/10 10:19:51;;;;;;;2.58;0.93;;;3.10;99.90;;;;;;5067198;28;20044;-80
2023/03/10 10:22:17;;;;;;;2.10;1.00;;;3.10;99.90;;;;;;5046751;28;20535;-80
2023/03/10 10:24:44;;;;;;;1.75;0.90;;;3.10;99.90;;;;;;5056138;28;20033;-79
2023/03/10 10:27:16;;;;;;;0.85;0.70;;;3.20;99.90;;;;;;5056693;28;20345;-82
2023/03/10 10:29:45;;;;;;;;;;;3.20;99.90;;;;;;5068882;28;20040;-81
2023/03/10 10:32:12;;;;;;;1.80;0.90;;;3.20;99.90;;;;;;5054932;28;19968;-80
2023/03/10 10:34:39;;;;;;;3.80;1.00;;;3.20;99.90;;;;;;5037492;28;20052;-81
2023/03/10 10:37:05;;;;;;;1.67;0.80;;;3.20;99.90;;;;;;5054964;28;20056;-81
2023/03/10 10:39:32;;;;;;;0.85;0.77;;;3.20;99.90;;;;;;5051565;28;20429;-81
2023/03/10 10:41:59;;;;;;;4.05;0.70;;;3.30;99.90;;;;;;5050208;28;20052;-83
2023/03/10 10:44:26;;;;;;;1.55;0.85;;;3.40;99.90;;;;;;5054570;28;20037;-83
2023/03/10 10:46:52;;;;;;;1.02;0.82;;;3.50;99.90;;;;;;5035089;28;20083;-82
2023/03/10 10:49:19;;;;;;;1.77;0.88;;;3.60;99.90;;;;;;5044637;28;20067;-83
2023/03/10 10:51:46;;;;;;;0.93;0.80;;;3.90;99.90;;;;;;5055232;28;20051;-82
2023/03/10 10:54:13;;;;;;;1.20;0.90;;;3.80;99.90;;;;;;5053851;28;20041;-83
2023/03/10 10:56:39;;;;;;;1.15;0.88;;;4.00;99.90;;;;;;5054961;28;20102;-80
2023/03/10 10:59:06;;;;;;;1.67;0.80;;;4.00;99.90;;;;;;5050157;28;20489;-78
2023/03/10 11:01:32;;;;;;;1.35;0.90;;;4.10;99.90;;;;;;5053686;28;20067;-81
2023/03/10 11:03:59;;;;;;;2.65;1.08;;;4.30;99.90;;;;;;5043403;28;20041;-79
2023/03/10 11:06:26;;;;;;;0.88;0.80;;;4.60;99.90;;;;;;5053010;28;20052;-78
2023/03/10 11:08:53;;;;;;;2.72;1.10;;;4.70;99.90;;;;;;5050250;28;20069;-80
2023/03/10 11:11:19;;;;;;;1.25;0.90;;;4.60;99.90;;;;;;5035870;28;20038;-84
2023/03/10 11:13:46;;;;;;;1.95;1.10;;;4.50;99.90;;;;;;5017906;28;20067;-81
2023/03/10 11:16:13;;;;;;;2.55;1.17;;;4.70;99.90;;;;;;5055098;28;20429;-81
2023/03/10 11:18:39;;;;;;;2.33;1.10;;;4.50;99.90;;;;;;5029896;28;20049;-81
2023/03/10 11:21:06;;;;;;;2.65;1.08;;;4.50;99.90;;;;;;5036506;28;20048;-86
2023/03/10 11:23:33;;;;;;;6.00;1.20;;;4.40;99.90;;;;;;5045774;28;20065;-82
2023/03/10 11:25:59;;;;;;;2.20;1.00;;;4.40;99.90;;;;;;5034700;28;20404;-84
2023/03/10 11:28:26;;;;;;;2.38;1.10;;;4.30;99.90;;;;;;5046950;28;20091;-84
2023/03/10 11:30:53;;;;;;;1.83;1.00;;;4.30;99.90;;;;;;5021100;28;20107;-85
2023/03/10 11:33:19;;;;;;;4.50;1.10;;;4.20;99.90;;;;;;5054157;28;20494;-82
2023/03/10 11:35:46;;;;;;;2.78;1.00;;;4.20;99.90;;;;;;5032963;28;20041;-82
2023/03/10 11:38:13;;;;;;;1.27;0.90;;;4.20;99.90;;;;;;5028132;28;20057;-83
2023/03/10 11:40:39;;;;;;;1.42;0.88;;;4.40;99.90;;;;;;5038653;28;20491;-80
2023/03/10 11:43:06;;;;;;;1.70;1.00;;;4.30;99.90;;;;;;5051176;28;20049;-87
2023/03/10 11:45:37;;;;;;;2.15;0.90;;;4.20;99.90;;;;;;4985353;28;20053;-85
2023/03/10 11:48:04;;;;;;;1.95;0.90;;;4.10;99.90;;;;;;5034369;28;20048;-86
2023/03/10 11:50:30;;;;;;;1.60;0.90;;;4.10;99.90;;;;;;5036217;28;20478;-82
2023/03/10 11:52:57;;;;;;;4.50;1.00;;;4.10;99.90;;;;;;5043917;28;20482;-80
2023/03/10 11:55:23;;;;;;;4.03;1.33;;;4.10;99.90;;;;;;5031970;28;20046;-80
2023/03/10 11:57:51;;;;;;;2.60;1.08;;;4.10;99.90;;;;;;5034144;28;20049;-83
2023/03/10 12:00:18;;;;;;;3.08;1.38;;;4.20;99.90;;;;;;5034834;28;20129;-82
2023/03/10 12:02:44;;;;;;;3.75;1.20;;;4.20;99.90;;;;;;5033661;28;20041;-81
2023/03/10 12:05:11;;;;;;;3.75;1.27;;;4.20;99.90;;;;;;5035832;28;20029;-83
2023/03/10 12:07:38;;;;;;;3.08;1.30;;;4.30;99.90;;;;;;5017076;28;20107;-83
2023/03/10 12:10:04;;;;;;;4.40;1.35;;;4.40;99.90;;;;;;5035375;28;20445;-82
2023/03/10 12:12:31;;;;;;;6.03;1.80;;;4.50;99.90;;;;;;5034848;28;20049;-84
2023/03/10 12:14:58;;;;;;;5.10;1.80;;;4.40;99.90;;;;;;5033879;28;20049;-80
2023/03/10 12:17:24;;;;;;;5.53;2.28;;;4.40;99.90;;;;;;5034889;28;20053;-83
2023/03/10 12:19:51;;;;;;;7.03;2.70;;;4.30;99.90;;;;;;5019510;28;20095;-82
2023/03/10 12:22:17;;;;;;;4.68;2.00;;;4.20;99.90;;;;;;5018019;28;20079;-84
2023/03/10 12:24:44;;;;;;;5.60;2.20;;;4.30;99.90;;;;;;5035512;28;20033;-82
2023/03/10 12:27:11;;;;;;;5.00;2.17;;;4.30;99.90;;;;;;5034002;28;20038;-82
2023/03/10 12:29:38;;;;;;;4.65;1.95;;;4.30;99.90;;;;;;5034736;28;20042;-81
2023/03/10 12:32:04;;;;;;;5.95;2.20;;;4.20;99.90;;;;;;5054771;28;20041;-80
2023/03/10 12:34:31;;;;;;;4.88;2.08;;;4.30;99.90;;;;;;5036658;28;20049;-84
2023/03/10 12:36:58;;;;;;;2.88;1.30;;;4.40;99.90;;;;;;5052750;28;20048;-82
2023/03/10 12:39:25;;;;;;;5.03;1.58;;;4.50;99.90;;;;;;5053907;28;20139;-83
2023/03/10 12:41:52;;;;;;;5.78;1.98;;;4.60;99.90;;;;;;5053276;28;20037;-81
2023/03/10 12:44:19;;;;;;;4.70;1.75;;;4.80;99.90;;;;;;5053620;28;20049;-80
2023/03/10 12:46:45;;;;;;;3.95;1.60;;;5.00;99.90;;;;;;5036791;28;20367;-82
2023/03/10 12:49:12;;;;;;;3.28;1.30;;;5.10;99.90;;;;;;5053033;28;20056;-82
2023/03/10 12:51:39;;;;;;;3.88;1.20;;;5.20;99.90;;;;;;5053657;28;20049;-81
2023/03/10 12:54:06;;;;;;;3.90;1.20;;;5.10;99.90;;;;;;5054642;28;20114;-83
2023/03/10 12:56:33;;;;;;;4.55;1.20;;;5.10;99.90;;;;;;5052986;28;20041;-82
2023/03/10 12:58:59;;;;;;;3.42;1.17;;;5.10;99.90;;;;;;5054482;28;20055;-81
2023/03/10 13:01:26;;;;;;;2.75;1.10;;;5.10;99.90;;;;;;5053246;28;20471;-81
2023/03/10 13:03:53;;;;;;;3.95;1.40;;;5.00;99.90;;;;;;5054320;28;20118;-80
2023/03/10 13:06:20;;;;;;;5.18;1.40;;;4.90;99.90;;;;;;5053852;28;20052;-81
2023/03/10 13:08:47;;;;;;;6.28;1.30;;;4.80;99.90;;;;;;5053278;28;20037;-82
2023/03/10 13:11:14;;;;;;;3.60;1.30;;;4.90;99.90;;;;;;5053527;28;20048;-78
2023/03/10 13:13:41;;;;;;;5.43;1.58;;;4.90;99.90;;;;;;5053493;28;20067;-81
2023/03/10 13:16:07;;;;;;;3.90;1.40;;;4.90;99.90;;;;;;5052128;28;20111;-81
2023/03/10 13:18:34;;;;;;;2.47;1.20;;;4.90;99.90;;;;;;5054368;28;20505;-82
2023/03/10 13:21:00;;;;;;;5.75;1.30;;;4.90;99.90;;;;;;5052233;28;20044;-82
2023/03/10 13:23:28;;;;;;;3.33;1.30;;;5.00;99.90;;;;;;5053382;28;20079;-81
2023/03/10 13:25:54;;;;;;;3.05;1.23;;;5.00;99.90;;;;;;5053974;28;20036;-81
2023/03/10 13:28:21;;;;;;;3.38;1.40;;;5.00;99.90;;;;;;5052885;28;20060;-81
2023/03/10 13:30:48;;;;;;;4.18;1.30;;;5.10;99.90;;;;;;5054267;28;20033;-83
2023/03/10 13:33:14;;;;;;;3.75;1.40;;;5.20;99.90;;;;;;5054221;28;20044;-84
2023/03/10 13:35:41;;;;;;;4.88;1.40;;;5.20;99.90;;;;;;5051926;28;20033;-82
2023/03/10 13:38:08;;;;;;;4.47;1.55;;;5.30;99.90;;;;;;5053414;28;20068;-85
2023/03/10 13:40:35;;;;;;;5.07;1.55;;;5.30;99.90;;;;;;5036789;28;20467;-84
2023/03/10 13:43:01;;;;;;;4.40;1.45;;;5.40;99.90;;;;;;5035522;28;20057;-83
2023/03/10 13:45:32;;;;;;;4.57;1.75;;;5.60;99.90;;;;;;5036247;28;20049;-83
2023/03/10 13:47:59;;;;;;;3.67;1.40;;;5.90;99.90;;;;;;5054418;28;20041;-84
2023/03/10 13:50:26;;;;;;;6.93;1.95;;;6.50;99.90;;;;;;5058037;28;20048;-84
2023/03/10 13:52:53;;;;;;;4.40;1.80;;;7.00;99.90;;;;;;5058040;28;20353;-84